sensor_id;sensor_type;location;lat;lon;timestamp;temperature;humidity
17998;DHT22;9124;48.144;17.098;2022-09-29T00:18:38;12.80;92.70
17998;DHT22;9124;48.144;17.098;2022-09-29T00:37:56;12.70;93.00
17998;DHT22;9124;48.144;17.098;2022-09-29T00:41:34;12.70;93.00
17998;DHT22;9124;48.144;17.098;2022-09-29T00:45:19;12.70;93.00
17998;DHT22;9124;48.144;17.098;2022-09-29T01:07:35;12.30;93.30
17998;DHT22;9124;48.144;17.098;2022-09-29T01:15:51;12.30;93.70
17998;DHT22;9124;48.144;17.098;2022-09-29T01:20:12;12.20;93.60
17998;DHT22;9124;48.144;17.098;2022-09-29T01:33:25;12.20;93.80
17998;DHT22;9124;48.144;17.098;2022-09-29T01:41:17;12.10;94.10
17998;DHT22;9124;48.144;17.098;2022-09-29T01:45:07;12.10;94.20
17998;DHT22;9124;48.144;17.098;2022-09-29T01:48:50;12.20;94.30
17998;DHT22;9124;48.144;17.098;2022-09-29T01:52:32;12.20;94.30
17998;DHT22;9124;48.144;17.098;2022-09-29T01:56:15;12.20;94.40
17998;DHT22;9124;48.144;17.098;2022-09-29T02:00:18;12.20;94.50
17998;DHT22;9124;48.144;17.098;2022-09-29T02:04:17;12.20;94.70
17998;DHT22;9124;48.144;17.098;2022-09-29T02:17:22;12.10;95.10
17998;DHT22;9124;48.144;17.098;2022-09-29T02:21:00;12.00;95.20
17998;DHT22;9124;48.144;17.098;2022-09-29T02:24:36;12.10;95.30
17998;DHT22;9124;48.144;17.098;2022-09-29T02:28:14;12.10;95.40
17998;DHT22;9124;48.144;17.098;2022-09-29T02:31:51;12.10;95.50
17998;DHT22;9124;48.144;17.098;2022-09-29T02:35:39;12.00;95.60
17998;DHT22;9124;48.144;17.098;2022-09-29T02:56:11;11.90;96.40
17998;DHT22;9124;48.144;17.098;2022-09-29T03:00:12;12.00;96.50
17998;DHT22;9124;48.144;17.098;2022-09-29T03:03:49;12.00;96.80
17998;DHT22;9124;48.144;17.098;2022-09-29T03:07:26;11.90;96.90
17998;DHT22;9124;48.144;17.098;2022-09-29T03:11:02;11.90;97.20
17998;DHT22;9124;48.144;17.098;2022-09-29T03:14:39;11.80;97.30
17998;DHT22;9124;48.144;17.098;2022-09-29T03:18:15;11.80;97.60
17998;DHT22;9124;48.144;17.098;2022-09-29T03:21:51;11.80;97.80
17998;DHT22;9124;48.144;17.098;2022-09-29T03:25:28;11.80;98.00
17998;DHT22;9124;48.144;17.098;2022-09-29T03:29:04;11.80;98.30
17998;DHT22;9124;48.144;17.098;2022-09-29T03:32:42;11.70;98.50
17998;DHT22;9124;48.144;17.098;2022-09-29T03:36:18;11.70;98.80
17998;DHT22;9124;48.144;17.098;2022-09-29T03:39:55;11.70;98.90
17998;DHT22;9124;48.144;17.098;2022-09-29T03:43:31;11.70;99.10
17998;DHT22;9124;48.144;17.098;2022-09-29T03:47:08;11.70;99.30
17998;DHT22;9124;48.144;17.098;2022-09-29T03:50:45;11.70;99.50
17998;DHT22;9124;48.144;17.098;2022-09-29T03:54:22;11.60;99.70
17998;DHT22;9124;48.144;17.098;2022-09-29T03:58:01;11.60;99.80
17998;DHT22;9124;48.144;17.098;2022-09-29T04:01:37;11.50;99.90
17998;DHT22;9124;48.144;17.098;2022-09-29T04:05:14;11.50;99.90
17998;DHT22;9124;48.144;17.098;2022-09-29T04:08:51;11.50;99.90
17998;DHT22;9124;48.144;17.098;2022-09-29T04:12:27;11.60;99.90
17998;DHT22;9124;48.144;17.098;2022-09-29T04:16:04;11.60;99.90
17998;DHT22;9124;48.144;17.098;2022-09-29T04:19:41;11.60;99.90
17998;DHT22;9124;48.144;17.098;2022-09-29T04:23:18;11.60;99.90
17998;DHT22;9124;48.144;17.098;2022-09-29T04:26:55;11.60;99.90
17998;DHT22;9124;48.144;17.098;2022-09-29T04:30:31;11.60;99.90
17998;DHT22;9124;48.144;17.098;2022-09-29T04:34:08;11.60;99.90
17998;DHT22;9124;48.144;17.098;2022-09-29T04:47:46;11.50;99.90
17998;DHT22;9124;48.144;17.098;2022-09-29T05:01:29;11.50;99.90
17998;DHT22;9124;48.144;17.098;2022-09-29T05:09:44;11.50;99.90
17998;DHT22;9124;48.144;17.098;2022-09-29T05:27:37;11.60;99.90
17998;DHT22;9124;48.144;17.098;2022-09-29T05:31:14;11.60;99.90
17998;DHT22;9124;48.144;17.098;2022-09-29T05:34:50;11.60;99.90
17998;DHT22;9124;48.144;17.098;2022-09-29T05:38:26;11.60;99.90
17998;DHT22;9124;48.144;17.098;2022-09-29T05:42:10;11.70;99.90
17998;DHT22;9124;48.144;17.098;2022-09-29T05:45:47;11.70;99.90
17998;DHT22;9124;48.144;17.098;2022-09-29T05:49:23;11.80;99.90
17998;DHT22;9124;48.144;17.098;2022-09-29T05:57:38;12.10;99.90
17998;DHT22;9124;48.144;17.098;2022-09-29T06:01:19;12.10;99.90
17998;DHT22;9124;48.144;17.098;2022-09-29T06:04:56;12.20;99.90
17998;DHT22;9124;48.144;17.098;2022-09-29T06:08:32;12.30;99.90
17998;DHT22;9124;48.144;17.098;2022-09-29T06:12:09;12.30;99.90
17998;DHT22;9124;48.144;17.098;2022-09-29T06:15:45;12.40;99.90
17998;DHT22;9124;48.144;17.098;2022-09-29T06:19:21;12.50;99.90
17998;DHT22;9124;48.144;17.098;2022-09-29T06:22:58;12.60;99.90
17998;DHT22;9124;48.144;17.098;2022-09-29T06:26:34;12.50;99.90
17998;DHT22;9124;48.144;17.098;2022-09-29T06:30:11;12.70;99.90
17998;DHT22;9124;48.144;17.098;2022-09-29T06:33:48;12.90;99.90
17998;DHT22;9124;48.144;17.098;2022-09-29T06:37:24;13.10;99.90
17998;DHT22;9124;48.144;17.098;2022-09-29T06:41:11;13.20;99.90
17998;DHT22;9124;48.144;17.098;2022-09-29T06:49:37;13.80;99.80
17998;DHT22;9124;48.144;17.098;2022-09-29T06:53:13;14.40;99.10
17998;DHT22;9124;48.144;17.098;2022-09-29T06:56:52;14.80;98.40
17998;DHT22;9124;48.144;17.098;2022-09-29T07:00:31;14.90;97.70
17998;DHT22;9124;48.144;17.098;2022-09-29T07:04:10;15.10;97.10
17998;DHT22;9124;48.144;17.098;2022-09-29T07:07:48;15.20;96.70
17998;DHT22;9124;48.144;17.098;2022-09-29T07:11:25;15.30;96.00
17998;DHT22;9124;48.144;17.098;2022-09-29T07:15:02;14.90;95.50
17998;DHT22;9124;48.144;17.098;2022-09-29T07:18:40;14.50;95.50
17998;DHT22;9124;48.144;17.098;2022-09-29T07:22:20;14.30;95.50
17998;DHT22;9124;48.144;17.098;2022-09-29T07:25:56;14.50;95.50
17998;DHT22;9124;48.144;17.098;2022-09-29T07:29:32;14.80;95.30
17998;DHT22;9124;48.144;17.098;2022-09-29T07:33:10;15.10;95.00
17998;DHT22;9124;48.144;17.098;2022-09-29T07:36:46;15.60;94.80
17998;DHT22;9124;48.144;17.098;2022-09-29T07:40:23;15.60;93.60
17998;DHT22;9124;48.144;17.098;2022-09-29T07:44:01;15.60;93.20
17998;DHT22;9124;48.144;17.098;2022-09-29T07:47:38;16.10;92.80
17998;DHT22;9124;48.144;17.098;2022-09-29T07:51:19;16.50;92.10
17998;DHT22;9124;48.144;17.098;2022-09-29T07:54:57;16.80;91.30
17998;DHT22;9124;48.144;17.098;2022-09-29T07:58:33;16.80;90.60
17998;DHT22;9124;48.144;17.098;2022-09-29T08:02:10;16.90;90.30
17998;DHT22;9124;48.144;17.098;2022-09-29T08:05:47;16.90;89.40
17998;DHT22;9124;48.144;17.098;2022-09-29T08:09:24;16.80;88.60
17998;DHT22;9124;48.144;17.098;2022-09-29T08:13:00;16.60;88.00
17998;DHT22;9124;48.144;17.098;2022-09-29T08:16:37;16.50;87.60
17998;DHT22;9124;48.144;17.098;2022-09-29T08:20:14;16.40;87.50
17998;DHT22;9124;48.144;17.098;2022-09-29T08:23:50;16.40;87.10
17998;DHT22;9124;48.144;17.098;2022-09-29T08:27:27;16.30;86.80
17998;DHT22;9124;48.144;17.098;2022-09-29T08:31:06;16.20;86.80
17998;DHT22;9124;48.144;17.098;2022-09-29T08:34:43;16.10;86.60
17998;DHT22;9124;48.144;17.098;2022-09-29T08:38:19;16.00;86.90
17998;DHT22;9124;48.144;17.098;2022-09-29T08:42:05;15.90;86.70
17998;DHT22;9124;48.144;17.098;2022-09-29T08:45:52;15.90;86.40
17998;DHT22;9124;48.144;17.098;2022-09-29T08:49:38;15.70;86.70
17998;DHT22;9124;48.144;17.098;2022-09-29T08:53:19;15.90;86.70
17998;DHT22;9124;48.144;17.098;2022-09-29T08:56:58;16.30;86.60
17998;DHT22;9124;48.144;17.098;2022-09-29T09:00:41;16.90;86.40
17998;DHT22;9124;48.144;17.098;2022-09-29T09:04:40;17.30;85.00
17998;DHT22;9124;48.144;17.098;2022-09-29T09:13:04;18.20;82.30
17998;DHT22;9124;48.144;17.098;2022-09-29T09:20:55;19.20;79.50
17998;DHT22;9124;48.144;17.098;2022-09-29T09:24:47;19.60;77.50
17998;DHT22;9124;48.144;17.098;2022-09-29T09:28:32;19.70;75.60
17998;DHT22;9124;48.144;17.098;2022-09-29T09:32:24;19.60;74.40
17998;DHT22;9124;48.144;17.098;2022-09-29T09:43:56;18.30;73.60
17998;DHT22;9124;48.144;17.098;2022-09-29T09:47:39;17.90;74.00
17998;DHT22;9124;48.144;17.098;2022-09-29T09:55:17;17.40;75.30
17998;DHT22;9124;48.144;17.098;2022-09-29T09:59:00;17.50;75.80
17998;DHT22;9124;48.144;17.098;2022-09-29T10:02:49;17.60;75.80
17998;DHT22;9124;48.144;17.098;2022-09-29T10:06:26;17.80;76.00
17998;DHT22;9124;48.144;17.098;2022-09-29T10:10:06;17.90;75.60
17998;DHT22;9124;48.144;17.098;2022-09-29T10:17:41;18.00;75.10
17998;DHT22;9124;48.144;17.098;2022-09-29T10:21:22;18.20;74.90
17998;DHT22;9124;48.144;17.098;2022-09-29T10:25:24;19.90;75.90
17998;DHT22;9124;48.144;17.098;2022-09-29T10:29:15;22.20;73.40
17998;DHT22;9124;48.144;17.098;2022-09-29T10:32:57;22.70;70.20
17998;DHT22;9124;48.144;17.098;2022-09-29T10:37:17;21.90;66.70
17998;DHT22;9124;48.144;17.098;2022-09-29T10:40:57;21.30;66.10
17998;DHT22;9124;48.144;17.098;2022-09-29T10:44:38;20.90;65.90
17998;DHT22;9124;48.144;17.098;2022-09-29T10:48:15;20.80;65.50
17998;DHT22;9124;48.144;17.098;2022-09-29T10:55:30;20.50;64.80
17998;DHT22;9124;48.144;17.098;2022-09-29T10:59:09;20.30;64.40
17998;DHT22;9124;48.144;17.098;2022-09-29T11:02:46;20.70;64.10
17998;DHT22;9124;48.144;17.098;2022-09-29T11:06:34;20.80;63.40
17998;DHT22;9124;48.144;17.098;2022-09-29T11:10:30;20.70;63.20
17998;DHT22;9124;48.144;17.098;2022-09-29T11:17:59;20.40;62.60
17998;DHT22;9124;48.144;17.098;2022-09-29T11:26:42;20.40;62.90
17998;DHT22;9124;48.144;17.098;2022-09-29T11:38:18;19.90;62.20
17998;DHT22;9124;48.144;17.098;2022-09-29T11:45:53;20.30;61.20
17998;DHT22;9124;48.144;17.098;2022-09-29T11:49:52;20.20;61.10
17998;DHT22;9124;48.144;17.098;2022-09-29T11:57:57;20.40;60.10
17998;DHT22;9124;48.144;17.098;2022-09-29T12:06:20;20.20;59.40
17998;DHT22;9124;48.144;17.098;2022-09-29T12:10:04;19.80;59.30
17998;DHT22;9124;48.144;17.098;2022-09-29T12:17:53;19.70;59.50
17998;DHT22;9124;48.144;17.098;2022-09-29T12:21:41;19.80;59.40
17998;DHT22;9124;48.144;17.098;2022-09-29T12:25:22;19.50;58.80
17998;DHT22;9124;48.144;17.098;2022-09-29T12:29:20;19.00;59.00
17998;DHT22;9124;48.144;17.098;2022-09-29T12:33:28;18.80;59.60
17998;DHT22;9124;48.144;17.098;2022-09-29T12:37:20;18.80;59.70
17998;DHT22;9124;48.144;17.098;2022-09-29T12:52:53;18.30;59.50
17998;DHT22;9124;48.144;17.098;2022-09-29T12:56:37;18.30;59.90
17998;DHT22;9124;48.144;17.098;2022-09-29T13:00:15;18.50;59.60
17998;DHT22;9124;48.144;17.098;2022-09-29T13:20:30;19.20;59.00
17998;DHT22;9124;48.144;17.098;2022-09-29T13:28:25;18.50;58.70
17998;DHT22;9124;48.144;17.098;2022-09-29T13:32:03;18.00;58.90
17998;DHT22;9124;48.144;17.098;2022-09-29T13:35:42;17.70;59.30
17998;DHT22;9124;48.144;17.098;2022-09-29T13:39:24;17.50;59.60
17998;DHT22;9124;48.144;17.098;2022-09-29T13:43:03;17.20;60.00
17998;DHT22;9124;48.144;17.098;2022-09-29T13:46:42;17.00;60.30
17998;DHT22;9124;48.144;17.098;2022-09-29T13:58:23;16.90;60.90
17998;DHT22;9124;48.144;17.098;2022-09-29T14:02:01;16.90;61.20
17998;DHT22;9124;48.144;17.098;2022-09-29T14:05:44;16.80;60.80
17998;DHT22;9124;48.144;17.098;2022-09-29T14:09:21;16.90;60.80
17998;DHT22;9124;48.144;17.098;2022-09-29T14:21:05;17.10;62.10
17998;DHT22;9124;48.144;17.098;2022-09-29T14:24:42;17.20;62.10
17998;DHT22;9124;48.144;17.098;2022-09-29T14:28:26;17.20;61.40
17998;DHT22;9124;48.144;17.098;2022-09-29T14:32:16;17.30;61.20
17998;DHT22;9124;48.144;17.098;2022-09-29T14:39:38;17.30;60.50
17998;DHT22;9124;48.144;17.098;2022-09-29T14:43:16;17.10;60.60
17998;DHT22;9124;48.144;17.098;2022-09-29T14:55:59;16.50;61.80
17998;DHT22;9124;48.144;17.098;2022-09-29T15:03:47;16.40;63.20
17998;DHT22;9124;48.144;17.098;2022-09-29T15:07:26;16.50;62.80
17998;DHT22;9124;48.144;17.098;2022-09-29T15:11:03;16.60;63.00
17998;DHT22;9124;48.144;17.098;2022-09-29T15:14:42;16.70;63.50
17998;DHT22;9124;48.144;17.098;2022-09-29T15:18:32;16.70;63.80
17998;DHT22;9124;48.144;17.098;2022-09-29T15:22:51;16.70;64.00
17998;DHT22;9124;48.144;17.098;2022-09-29T15:26:32;16.80;64.10
17998;DHT22;9124;48.144;17.098;2022-09-29T15:30:17;16.80;64.20
17998;DHT22;9124;48.144;17.098;2022-09-29T15:33:54;16.70;63.60
17998;DHT22;9124;48.144;17.098;2022-09-29T15:41:30;16.50;63.80
17998;DHT22;9124;48.144;17.098;2022-09-29T15:45:16;16.30;64.00
17998;DHT22;9124;48.144;17.098;2022-09-29T15:58:49;16.10;65.40
17998;DHT22;9124;48.144;17.098;2022-09-29T16:07:53;15.80;67.00
17998;DHT22;9124;48.144;17.098;2022-09-29T16:16:09;15.40;67.50
17998;DHT22;9124;48.144;17.098;2022-09-29T16:19:47;15.20;67.90
17998;DHT22;9124;48.144;17.098;2022-09-29T16:28:03;15.10;69.60
17998;DHT22;9124;48.144;17.098;2022-09-29T16:36:19;15.00;71.00
17998;DHT22;9124;48.144;17.098;2022-09-29T16:44:41;14.80;71.80
17998;DHT22;9124;48.144;17.098;2022-09-29T16:52:49;14.70;72.30
17998;DHT22;9124;48.144;17.098;2022-09-29T17:01:43;14.50;73.40
17998;DHT22;9124;48.144;17.098;2022-09-29T17:05:24;14.50;73.10
17998;DHT22;9124;48.144;17.098;2022-09-29T17:09:02;14.40;73.60
17998;DHT22;9124;48.144;17.098;2022-09-29T17:12:40;14.40;74.10
17998;DHT22;9124;48.144;17.098;2022-09-29T17:16:16;14.40;74.40
17998;DHT22;9124;48.144;17.098;2022-09-29T17:19:56;14.40;74.80
17998;DHT22;9124;48.144;17.098;2022-09-29T17:23:32;14.40;75.20
17998;DHT22;9124;48.144;17.098;2022-09-29T17:27:10;14.30;75.70
17998;DHT22;9124;48.144;17.098;2022-09-29T17:31:09;14.40;76.00
17998;DHT22;9124;48.144;17.098;2022-09-29T17:34:47;14.30;76.30
17998;DHT22;9124;48.144;17.098;2022-09-29T17:38:24;14.30;76.50
17998;DHT22;9124;48.144;17.098;2022-09-29T17:42:02;14.20;76.70
17998;DHT22;9124;48.144;17.098;2022-09-29T17:45:38;14.20;77.20
17998;DHT22;9124;48.144;17.098;2022-09-29T17:58:30;14.00;77.90
17998;DHT22;9124;48.144;17.098;2022-09-29T18:02:12;13.80;78.00
17998;DHT22;9124;48.144;17.098;2022-09-29T18:05:52;13.60;78.60
17998;DHT22;9124;48.144;17.098;2022-09-29T18:09:31;13.50;79.10
17998;DHT22;9124;48.144;17.098;2022-09-29T18:13:08;13.40;79.70
17998;DHT22;9124;48.144;17.098;2022-09-29T18:16:44;13.20;79.30
17998;DHT22;9124;48.144;17.098;2022-09-29T18:20:21;13.20;79.80
17998;DHT22;9124;48.144;17.098;2022-09-29T18:37:55;13.00;81.40
17998;DHT22;9124;48.144;17.098;2022-09-29T18:41:33;12.90;81.20
17998;DHT22;9124;48.144;17.098;2022-09-29T18:45:14;12.80;81.60
17998;DHT22;9124;48.144;17.098;2022-09-29T18:48:58;12.70;82.20
17998;DHT22;9124;48.144;17.098;2022-09-29T18:52:34;12.60;82.50
17998;DHT22;9124;48.144;17.098;2022-09-29T18:56:14;12.60;82.80
17998;DHT22;9124;48.144;17.098;2022-09-29T18:59:54;12.70;83.30
17998;DHT22;9124;48.144;17.098;2022-09-29T19:03:30;12.70;83.40
17998;DHT22;9124;48.144;17.098;2022-09-29T19:07:08;12.70;83.60
17998;DHT22;9124;48.144;17.098;2022-09-29T19:10:53;12.70;83.60
17998;DHT22;9124;48.144;17.098;2022-09-29T19:14:29;12.70;83.70
17998;DHT22;9124;48.144;17.098;2022-09-29T19:18:13;12.70;83.70
17998;DHT22;9124;48.144;17.098;2022-09-29T19:21:49;12.70;84.40
17998;DHT22;9124;48.144;17.098;2022-09-29T19:25:26;12.70;84.70
17998;DHT22;9124;48.144;17.098;2022-09-29T19:29:05;12.70;85.10
17998;DHT22;9124;48.144;17.098;2022-09-29T19:32:42;12.70;85.30
17998;DHT22;9124;48.144;17.098;2022-09-29T19:36:20;12.60;85.40
17998;DHT22;9124;48.144;17.098;2022-09-29T19:39:56;12.70;86.00
17998;DHT22;9124;48.144;17.098;2022-09-29T19:43:33;12.60;86.00
17998;DHT22;9124;48.144;17.098;2022-09-29T19:47:09;12.70;86.30
17998;DHT22;9124;48.144;17.098;2022-09-29T19:50:47;12.70;86.70
17998;DHT22;9124;48.144;17.098;2022-09-29T19:54:42;12.70;87.00
17998;DHT22;9124;48.144;17.098;2022-09-29T19:58:19;12.70;87.20
17998;DHT22;9124;48.144;17.098;2022-09-29T20:01:56;12.70;87.40
17998;DHT22;9124;48.144;17.098;2022-09-29T20:05:32;12.80;87.60
17998;DHT22;9124;48.144;17.098;2022-09-29T20:09:10;12.80;87.80
17998;DHT22;9124;48.144;17.098;2022-09-29T20:12:46;12.90;88.00
17998;DHT22;9124;48.144;17.098;2022-09-29T20:16:22;13.00;88.30
17998;DHT22;9124;48.144;17.098;2022-09-29T20:20:00;13.00;88.50
17998;DHT22;9124;48.144;17.098;2022-09-29T20:23:36;13.10;88.70
17998;DHT22;9124;48.144;17.098;2022-09-29T20:27:14;13.20;88.90
17998;DHT22;9124;48.144;17.098;2022-09-29T20:30:55;13.30;89.00
17998;DHT22;9124;48.144;17.098;2022-09-29T20:34:33;13.30;89.10
17998;DHT22;9124;48.144;17.098;2022-09-29T20:38:09;13.40;88.90
17998;DHT22;9124;48.144;17.098;2022-09-29T20:41:46;13.40;89.00
17998;DHT22;9124;48.144;17.098;2022-09-29T20:45:24;13.40;88.90
17998;DHT22;9124;48.144;17.098;2022-09-29T20:49:25;13.50;89.30
17998;DHT22;9124;48.144;17.098;2022-09-29T20:57:41;13.60;90.00
17998;DHT22;9124;48.144;17.098;2022-09-29T21:01:23;13.60;90.00
17998;DHT22;9124;48.144;17.098;2022-09-29T21:04:59;13.60;90.10
17998;DHT22;9124;48.144;17.098;2022-09-29T21:08:36;13.70;90.20
17998;DHT22;9124;48.144;17.098;2022-09-29T21:12:14;13.70;90.10
17998;DHT22;9124;48.144;17.098;2022-09-29T21:21:27;13.70;90.50
17998;DHT22;9124;48.144;17.098;2022-09-29T21:25:04;13.70;90.40
17998;DHT22;9124;48.144;17.098;2022-09-29T21:33:19;13.70;90.80
17998;DHT22;9124;48.144;17.098;2022-09-29T21:41:34;13.80;90.70
17998;DHT22;9124;48.144;17.098;2022-09-29T21:45:11;13.80;90.60
17998;DHT22;9124;48.144;17.098;2022-09-29T21:48:52;13.80;90.70
17998;DHT22;9124;48.144;17.098;2022-09-29T21:52:29;13.80;90.70
17998;DHT22;9124;48.144;17.098;2022-09-29T21:56:15;13.80;90.60
17998;DHT22;9124;48.144;17.098;2022-09-29T22:09:53;13.80;90.70
17998;DHT22;9124;48.144;17.098;2022-09-29T22:17:59;13.70;90.80
17998;DHT22;9124;48.144;17.098;2022-09-29T22:21:36;13.60;90.80
17998;DHT22;9124;48.144;17.098;2022-09-29T22:29:51;13.40;91.00
17998;DHT22;9124;48.144;17.098;2022-09-29T22:33:28;13.30;91.00
17998;DHT22;9124;48.144;17.098;2022-09-29T22:37:04;13.20;91.10
17998;DHT22;9124;48.144;17.098;2022-09-29T22:40:41;13.20;91.30
17998;DHT22;9124;48.144;17.098;2022-09-29T22:44:17;13.10;91.30
17998;DHT22;9124;48.144;17.098;2022-09-29T22:47:55;13.10;91.30
17998;DHT22;9124;48.144;17.098;2022-09-29T22:51:31;13.00;91.40
17998;DHT22;9124;48.144;17.098;2022-09-29T23:04:24;13.10;91.50
17998;DHT22;9124;48.144;17.098;2022-09-29T23:08:01;13.00;91.60
17998;DHT22;9124;48.144;17.098;2022-09-29T23:27:30;12.90;91.80
17998;DHT22;9124;48.144;17.098;2022-09-29T23:41:19;13.00;92.10
17998;DHT22;9124;48.144;17.098;2022-09-29T23:49:34;13.10;92.30
17998;DHT22;9124;48.144;17.098;2022-09-29T23:53:35;13.10;92.30
